Aeroporto :
LOGIN :

Iscrizione | Disclaimer

   EN    FR    IT 

 










Sommario :    VFR   VFR Marginale   IFR   IFR Intensivo   IFR Molto Intensivo
Visibilità : 
Base nubi : 
>= 8 km
>= 3000ft
5 / 8 km
1000 / 3000 ft
1500m / 5 km
500 / 1000 ft
800 / 1500m
200 / 500 ft
< 800m
< 200 ft
Simboli :   Temporali  Nebbia  Neve Forte  Precipitazioni Forti  Vento > 20 kt
SIGMETs :   Varie  Temporali  Ghiacco  Turbolenza  Onda orograficha  Ceneri Vulcaniche






- Altitudine del aeroporto : 56 ft
- Codice IATA : ILY


EGPI - Islay

ULTIMO METAR :
  • 231920Z AUTO 25012KT 1500 +DZ BKN003/// 10/10 Q1009

METARs OBSOLETI :
  • 231850Z AUTO 19015KT 160V220 9999 -RADZ BKN012/// SCT030/// 11/10 Q1009
  • 231820Z VRB14KT 9999 RA FEW010 BKN029 11/10 Q1009
  • 231750Z 19015KT 9999 -RA SCT031 11/10 Q1010
  • 231720Z VRB16KT 9999 -RA FEW010 BKN035 10/10 Q1010
  • 231650Z AUTO 18016KT 8000 -RADZ FEW009/// 10/10 Q1010

Previsioni scadute.



MetMap, La meteo Aeronautica in un colpo d'occhio ! - Copyright ORBIFLY Dicembre 2007 - Disclaimer

ORBIFLY MET'MAP TEAM :

Programmazione e sviluppo : Alexandra Zaïnal
Concezione : Baudouin d'Aumeries
Aiuto per la programmazione : Marc-Olivier Méhu
Supporto tecnico e logistico : Manuel Goepfert
Aiuto per la traduzione : Arnaldo La Scala

Contatto : metmap@orbifly.com




FONTI E CREDITI :

   NOAA